Latest Coastal Weather Observations for Brisbane Airport

IDQ60701

Issued at 11:32 pm EST Thursday 29 September 2016 (issued every 10 minutes, with the page automatically refreshed every 10 minutes)

About coastal observations | Map of coastal stations | Coastal observations for QLD | Marine services | Other Formats
Station Details ID: 040842 Name: BRISBANE AERO Lat: -27.39 Lon: 153.13 Height: 4.51 m
Data from the previous 72 hours. | See also: Recent months at Brisbane Airport
Date/Time
EST
Temp
°C
Wind Pressure Rain since
9am
mm
Weather Cloud Vis
km
Sea
Height
m
Swell
Dir  Spd
kts
Gust
kts
hPa Trend Height
m
Period
s
Dir
29/11:00pm 18.6 NNW 11 17 1007.3 - 0.0 - Partly cloudy 10 - - - -
29/10:30pm 18.4 NNW 14 18 1007.5 - 0.0 - - 10 - - - -
29/10:00pm 18.6 N 15 19 1007.4 - 0.0 - - 10 - - - -
29/09:30pm 18.4 N 15 22 1007.6 - 0.0 - - 10 - - - -
29/09:00pm 18.9 N 18 22 1007.3 F 0.0 Fine Mostly clear 30 - - - -
29/08:30pm 19.0 N 17 22 1007.5 - 0.0 - - 10 - - - -
29/08:00pm 19.1 N 18 22 1007.6 - 0.0 - Partly cloudy 10 - - - -
29/07:30pm 19.3 N 17 24 1007.4 - 0.0 - Partly cloudy 10 - - - -
29/07:00pm 19.7 N 16 21 1007.0 - 0.0 - Partly cloudy 10 - - - -
29/06:30pm 19.8 N 14 18 1006.8 - 0.0 - Mostly clear 10 - - - -
29/06:00pm 20.2 N 15 18 1007.0 F 0.0 Smoke Cloudy 20 - - - -
29/05:30pm 19.9 N 13 17 1006.7 - 0.0 - Cloudy 10 - - - -
29/05:00pm 19.8 N 11 16 1006.5 - 0.0 - Partly cloudy 10 - - - -
29/04:30pm 19.9 NNW 12 16 1006.5 - 0.0 - Cloudy 10 - - - -
29/04:00pm 19.4 NW 7 9 1006.7 - 0.0 - Partly cloudy 10 - - - -
29/03:30pm 20.0 NW 13 20 1006.8 - 0.0 Rain Partly cloudy 9 - - - -
29/03:00pm 22.1 NNW 13 16 1006.4 R 0.0 Smoke Cloudy 20 - - - -
29/02:30pm 22.5 NNW 11 17 1006.5 - 0.0 - Cloudy 10 - - - -
29/02:00pm 22.3 N 14 18 1006.9 - 0.0 - Partly cloudy 10 - - - -
29/01:30pm 22.9 N 17 21 1006.7 - 0.0 - Partly cloudy 10 - - - -
29/01:00pm 23.2 N 13 17 1007.4 - 0.0 - Partly cloudy 10 - - - -
29/12:30pm 22.3 N 11 15 1008.0 - 0.0 - Mostly clear 10 - - - -
29/12:00pm 21.8 NNW 13 17 1008.2 R 0.0 Showers Cloudy 17 - - - -
29/11:30am 22.8 N 14 17 1008.5 - 0.0 Showers Partly cloudy 10 - - - -
29/11:00am 22.6 N 15 19 1008.2 - 0.0 - Partly cloudy 10 - - - -
29/10:30am 22.6 N 16 20 1008.4 - 0.0 - Partly cloudy 10 - - - -
29/10:00am 22.2 N 14 17 1009.0 - 0.0 - Cloudy 10 - - - -
29/09:30am 22.3 N 14 17 1009.3 - 0.0 - Partly cloudy 10 - - - -
29/09:00am 21.7 N 13 17 1009.3 F 0.0 Smoke Mostly cloudy 12 - - - -
29/08:30am 20.8 N 11 14 1009.6 - 0.0 - Cloudy 10 - - - -
29/08:00am 20.1 NNW 8 11 1009.9 - 0.0 - Partly cloudy 10 - - - -
29/07:30am 19.4 N 10 13 1009.6 - 0.0 - Cloudy 10 - - - -
29/07:00am 19.5 N 10 12 1009.6 - 0.0 - Cloudy 10 - - - -
29/06:30am 19.5 N 9 12 1009.6 - 0.0 - Cloudy 10 - - - -
29/06:00am 18.9 N 10 14 1009.4 F 0.0 Smoke Cloudy 18 - - - -
29/05:30am 18.3 N 9 12 1009.3 - 0.0 - Partly cloudy 10 - - - -
29/05:00am 17.6 N 9 12 1009.2 - 0.0 - - 10 - - - -
29/04:30am 17.2 N 10 13 1009.1 - 0.0 - - 10 - - - -
29/04:00am 17.2 N 9 11 1009.3 - 0.0 - - 10 - - - -
29/03:30am 17.3 N 7 7 1009.3 - 0.0 - - 10 - - - -
29/03:00am 17.5 N 5 6 1009.3 F 0.0 Fine Partly cloudy 30 - - - -
29/02:30am 17.1 NNW 4 5 1009.8 - 0.0 - - 10 - - - -
29/02:00am 17.8 WNW 5 6 1010.3 - 0.0 - - 10 - - - -
29/01:30am 18.9 NNE 6 7 1010.6 - 0.0 - - 10 - - - -
29/01:00am 19.1 NE 7 9 1011.0 - 0.0 - Mostly clear 10 - - - -
29/12:30am 19.4 NE 7 8 1011.4 - 0.0 - Mostly clear 10 - - - -
29/12:00am 19.8 NE 7 9 1012.1 F 0.0 Fine Mostly clear 30 - - - -
 
Date/Time
EST
Temp
°C
Wind Pressure Rain since
9am
mm
Weather Cloud Vis
km
Sea
Height
m
Swell
Dir  Spd
kts
Gust
kts
hPa Trend Height
m
Period
s
Dir
28/11:30pm 19.9 NE 7 10 1012.4 - 0.0 - Mostly clear 10 - - - -
28/11:00pm 20.3 ENE 6 8 1012.4 - 0.0 - Mostly clear 10 - - - -
28/10:30pm 20.1 NE 8 11 1012.6 - 0.0 - Partly cloudy 10 - - - -
28/10:00pm 20.0 NE 9 12 1012.8 - 0.0 - Mostly clear 10 - - - -
28/09:30pm 19.8 NE 10 13 1012.8 - 0.0 - Mostly clear 10 - - - -
28/09:00pm 19.6 NE 10 14 1012.9 F 0.0 Fine Mostly clear 30 - - - -
28/08:30pm 20.2 NE 10 15 1012.6 - 0.0 - Mostly clear 10 - - - -
28/08:00pm 20.0 NE 8 11 1012.2 - 0.0 - Mostly clear 10 - - - -
28/07:30pm 20.3 NE 9 13 1012.1 - 0.0 - Mostly clear 10 - - - -
28/07:00pm 20.3 NE 10 13 1012.4 - 0.0 - Mostly clear 10 - - - -
28/06:30pm 20.5 NE 9 11 1012.2 - 0.0 - Mostly clear 10 - - - -
28/06:00pm 20.6 ENE 8 12 1012.0 R 0.0 Fine Partly cloudy 30 - - - -
28/05:30pm 20.9 ENE 9 13 1011.8 - 0.0 - Mostly clear 10 - - - -
28/05:00pm 21.2 NE 11 16 1011.7 - 0.0 - - 10 - - - -
28/04:30pm 21.6 NE 13 17 1011.2 - 0.0 - - 10 - - - -
28/04:00pm 22.3 NE 11 17 1010.6 - 0.0 - - 10 - - - -
28/03:30pm 22.6 ENE 12 17 1010.4 - 0.0 - - 10 - - - -
28/03:00pm 23.2 ENE 14 17 1010.5 S 0.0 Fine Partly cloudy 30 - - - -
28/02:30pm 23.8 ENE 13 18 1010.7 - 0.0 - - 10 - - - -
28/02:00pm 23.7 ENE 13 19 1011.0 - 0.0 - Mostly clear 10 - - - -
28/01:30pm 23.8 ENE 13 18 1011.3 - 0.0 - Mostly clear 10 - - - -
28/01:00pm 23.9 ENE 13 17 1011.6 - 0.0 - Mostly clear 10 - - - -
28/12:30pm 23.9 ENE 12 16 1012.1 - 0.0 - Mostly clear 10 - - - -
28/12:00pm 24.7 ENE 12 17 1012.5 R 0.0 Fine Mostly clear 30 - - - -
28/11:30am 24.3 ENE 9 13 1013.1 - 0.0 - Mostly clear 10 - - - -
28/11:00am 23.8 E 10 15 1013.6 - 0.0 - - 10 - - - -
28/10:30am 24.5 S 7 11 1013.8 - 0.0 - - 10 - - - -
28/10:00am 24.1 SW 6 13 1013.9 - 0.0 - - 10 - - - -
28/09:30am 23.5 SSW 7 10 1014.0 - 0.0 - - 10 - - - -
28/09:00am 22.5 SSW 5 8 1014.0 R 0.0 Fine Clear 30 - - - -
28/08:30am 16.1 WSW 5 7 1014.3 - 0.0 - - 10 - - - -
28/08:00am 19.6 WNW 5 7 1014.2 - 0.0 - - 10 - - - -
28/07:30am 17.8 WSW 4 5 1014.0 - 0.0 - - 10 - - - -
28/07:00am 15.9 SSW 1 4 1013.6 - 0.0 - - 10 - - - -
28/06:30am 14.5 NW 4 6 1013.2 - 0.0 - - 10 - - - -
28/06:00am 12.1 CALM 0 0 1012.6 R 0.0 Fine Clear 30 - - - -
28/05:30am 13.2 SSE 4 5 1012.3 - 0.0 - - 10 - - - -
28/05:00am 12.6 S 4 5 1012.1 - 0.0 - - 10 - - - -
28/04:30am 12.9 SSW 6 7 1011.6 - 0.0 - - 10 - - - -
28/04:00am 13.1 WSW 3 6 1011.3 - 0.0 - - 10 - - - -
28/03:30am 14.1 W 7 8 1011.1 - 0.0 - - 10 - - - -
28/03:00am 14.2 W 6 7 1011.0 F 0.0 Fine Clear 30 - - - -
28/02:30am 13.7 WNW 6 7 1011.1 - 0.0 - - 10 - - - -
28/02:00am 12.9 W 1 4 1011.5 - 0.0 - - 10 - - - -
28/01:30am 13.0 W 2 4 1011.6 - 0.0 - - 10 - - - -
28/01:00am 14.4 CALM 0 0 1011.6 - 0.0 - - 10 - - - -
28/12:30am 14.4 WNW 6 8 1011.9 - 0.0 - - 10 - - - -
28/12:00am 14.3 WNW 7 7 1012.1 F 0.0 Fine Clear 30 - - - -
 
Date/Time
EST
Temp
°C
Wind Pressure Rain since
9am
mm
Weather Cloud Vis
km
Sea
Height
m
Swell
Dir  Spd
kts
Gust
kts
hPa Trend Height
m
Period
s
Dir
27/11:30pm 14.1 CALM 0 0 1012.3 - 0.0 - - 10 - - - -
27/11:00pm 15.0 CALM 0 0 1012.4 - 0.0 - - 10 - - - -
27/10:30pm 14.7 CALM 0 0 1012.6 - 0.0 - - 10 - - - -
27/10:00pm 14.7 CALM 0 0 1012.6 - 0.0 - - 10 - - - -
27/09:30pm 15.5 CALM 0 0 1012.8 - 0.0 - - 10 - - - -
27/09:00pm 15.6 CALM 0 0 1012.9 F 0.0 Fine Clear 30 - - - -
27/08:30pm 16.1 CALM 0 0 1012.7 - 0.0 - - 10 - - - -
27/08:00pm 17.5 CALM 0 4 1012.6 - 0.0 - - 10 - - - -
27/07:30pm 17.9 CALM 0 0 1012.4 - 0.0 - - 10 - - - -
27/07:00pm 17.7 N 8 10 1012.0 - 0.0 - - 10 - - - -
27/06:30pm 19.2 NNE 10 18 1011.6 - 0.0 - - 10 - - - -
27/06:00pm 19.2 NNE 11 14 1011.3 F 0.0 Fine Mostly clear 30 - - - -
27/05:30pm 19.5 NNE 12 15 1011.0 - 0.0 - - 10 - - - -
27/05:00pm 20.5 NNE 14 16 1010.7 - 0.0 - - 10 - - - -
27/04:30pm 21.5 NE 13 15 1010.5 - 0.0 - - 10 - - - -
27/04:00pm 21.7 NE 13 16 1010.3 - 0.0 - - 10 - - - -
27/03:30pm 21.9 NNE 14 18 1010.4 - 0.0 - - 10 - - - -
27/03:00pm 22.0 NNE 14 17 1010.8 F 0.0 Fine Partly cloudy 30 - - - -
27/02:30pm 22.4 NNE 15 18 1010.7 - 0.0 - - 10 - - - -
27/02:00pm 23.9 NE 13 17 1011.1 - 0.0 - - 10 - - - -
27/01:30pm 23.3 NNE 8 13 1011.8 - 0.0 - - 10 - - - -
27/01:00pm 24.6 SW 7 12 1012.4 - 0.0 - - 10 - - - -
27/12:30pm 23.2 WSW 9 16 1012.6 - 0.0 - - 10 - - - -
27/12:00pm 22.6 SW 10 15 1012.9 F 0.0 Fine Partly cloudy 30 - - - -
27/11:30am 21.9 SSW 9 13 1013.6 - 0.0 - - 10 - - - -
27/11:00am 21.5 SW 9 14 1014.1 - 0.0 - - 10 - - - -
27/10:30am 20.6 SW 11 14 1014.4 - 0.0 - - 10 - - - -
27/10:00am 20.0 SW 13 16 1014.6 - 0.0 - - 10 - - - -
27/09:30am 19.3 SW 12 17 1014.7 - 0.0 - - 10 - - - -
27/09:00am 18.5 SSW 15 18 1015.0 R 0.0 Fine Mostly cloudy 30 - - - -
27/08:30am 17.9 SSW 12 17 1015.3 - 0.0 - - 10 - - - -
27/08:00am 18.1 SSW 13 18 1015.0 - 0.0 - - 10 - - - -
27/07:30am 18.1 SSW 14 19 1014.5 - 0.0 - - 10 - - - -
27/07:00am 17.6 SSW 9 15 1013.8 - 0.0 - - 10 - - - -
27/06:30am 16.2 SSW 6 7 1013.9 - 0.0 - - 10 - - - -
27/06:00am 14.7 WSW 4 5 1013.1 R 0.0 Fine Mostly cloudy 30 - - - -
27/05:30am 15.1 W 6 8 1012.3 - 0.0 - - 10 - - - -
27/05:00am 15.7 WNW 1 4 1012.1 - 0.0 - - 10 - - - -
27/04:30am 16.2 WSW 8 11 1011.8 - 0.0 - - 10 - - - -
27/04:00am 16.7 WSW 8 11 1011.6 - 0.0 - - 10 - - - -
27/03:30am 16.2 WSW 8 12 1011.5 - 0.0 - - 10 - - - -
27/03:00am 16.6 SW 6 8 1011.3 F 0.0 Fine Mostly cloudy 30 - - - -
27/02:30am 16.5 WSW 9 11 1011.4 - 0.0 - - 10 - - - -
27/02:00am 16.1 W 8 13 1011.8 - 0.0 - - 10 - - - -
27/01:30am 17.2 W 9 10 1011.9 - 0.0 - - 10 - - - -
27/01:00am 17.8 W 9 12 1012.2 - 0.0 - - 10 - - - -
27/12:30am 17.9 W 7 9 1012.5 - 0.0 - - 10 - - - -
27/12:00am 19.0 W 8 14 1012.6 R 0.0 Fine Mostly cloudy 30 - - - -

Other Formats:

Comma delimited format used in spreadsheet applications
http://www.bom.gov.au/fwo/IDQ60701/IDQ60701.94578.axf

JavaScript Object Notation format (JSON) in row-major order
http://www.bom.gov.au/fwo/IDQ60701/IDQ60701.94578.json